This is the latest recevied weather packets stored in our database for station/object CE3MLB. If no packets are shown the sender has not sent any weather packets the latest 10 day(s).
| Time | Temp. | Humidity | Pressure | Rain* | Wind** | Luminosity | Snow |
|---|---|---|---|---|---|---|---|
| 1778083240 | 13.89° C | 99% | 1005.5 hPa | 1.27 mm | - | 43 W/m² | - |
| 1778079640 | 12.78° C | 99% | 1004.9 hPa | 6.1 mm | - | 36 W/m² | - |
| 1778076038 | 11.67° C | 99% | 1004.5 hPa | 10.16 mm | - | 16 W/m² | - |
| 1778072435 | 10.56° C | 99% | 1003.9 hPa | 0 mm | - | 73 W/m² | - |
| 1778068834 | 10° C | 99% | 1003.7 hPa | 0 mm | - | 27 W/m² | - |
| 1778065233 | 8.33° C | 99% | 1003.5 hPa | 0 mm | - | 0 W/m² | - |
| 1778061630 | 6.67° C | 99% | 1002.6 hPa | 0 mm | - | 0 W/m² | - |
| 1778058027 | 6.67° C | 99% | 1002.2 hPa | 0 mm | - | 0 W/m² | - |
| 1778054426 | 7.22° C | 99% | 1002.2 hPa | 0 mm | - | 0 W/m² | - |
| 1778050822 | 7.78° C | 99% | 1002.1 hPa | 0 mm | - | 0 W/m² | - |
| 1778047222 | 7.22° C | 99% | 1002.4 hPa | 0 mm | - | 0 W/m² | - |
| 1778043618 | 7.22° C | 99% | 1002.7 hPa | 0 mm | - | 0 W/m² | - |
| 1778040015 | 8.89° C | 99% | 1003 hPa | 0 mm | - | 0 W/m² | - |
| 1778036410 | 9.44° C | 99% | 1003.3 hPa | 0 mm | - | 0 W/m² | - |
| 1778032810 | 10° C | 98% | 1003.6 hPa | 0 mm | - | 0 W/m² | - |
| 1778029209 | 11.11° C | 97% | 1003.7 hPa | 0 mm | - | 0 W/m² | - |
| 1778025603 | 12.22° C | 95% | 1003.5 hPa | 0 mm | - | 0 W/m² | - |
| 1778022000 | 13.33° C | 93% | 1003 hPa | 0 mm | - | 0 W/m² | - |
| 1778018397 | 13.89° C | 89% | 1002.7 hPa | 0 mm | - | 0 W/m² | - |
| 1778014796 | 15° C | 85% | 1001.7 hPa | 0 mm | - | 33 W/m² | - |
| 1778011194 | 17.22° C | 77% | 1001.3 hPa | 0 mm | - | 95 W/m² | - |
| 1778007592 | 19.44° C | 67% | 1000.7 hPa | 0 mm | - | 121 W/m² | - |
| 1778003989 | 21.11° C | 63% | 1000.1 hPa | 0 mm | - | 261 W/m² | - |
| 1778000388 | 22.78° C | 63% | 1000 hPa | 0 mm | - | 248 W/m² | - |
| 1777996788 | 20.56° C | 65% | 1000.1 hPa | 0 mm | - | 206 W/m² | - |
* Rain latest hour (hover to see other rain measurements)
** Current wind speed in m/s (hover to see current wind gust speed)